createdAt,value
2019-02-20T00:02:01.244Z,101954.58
2019-02-20T00:04:30.433Z,101950.68
2019-02-20T00:06:59.650Z,101961.17
2019-02-20T00:09:28.951Z,101962.03
2019-02-20T00:11:58.191Z,101961.20
2019-02-20T00:14:27.460Z,101973.03
2019-02-20T00:16:56.737Z,101960.34
2019-02-20T00:19:26.057Z,101964.75
2019-02-20T00:21:55.347Z,101971.34
2019-02-20T00:24:24.617Z,101976.55
2019-02-20T00:26:53.928Z,101966.94
2019-02-20T00:29:23.251Z,101966.94
2019-02-20T00:31:52.445Z,101975.69
2019-02-20T00:34:21.666Z,101971.73
2019-02-20T00:36:50.937Z,101980.08
2019-02-20T00:39:20.155Z,101980.06
2019-02-20T00:41:49.453Z,101978.77
2019-02-20T00:44:40.690Z,101978.32
2019-02-20T00:47:28.991Z,101971.31
2019-02-20T00:49:58.207Z,101970.91
2019-02-20T00:52:49.368Z,101970.91
2019-02-20T00:55:10.224Z,101990.20
2019-02-20T00:57:39.424Z,101981.48
2019-02-20T01:00:09.747Z,101990.25
2019-02-20T01:02:39.035Z,101978.86
2019-02-20T01:05:08.265Z,101989.83
2019-02-20T01:07:37.574Z,101988.91
2019-02-20T01:10:07.438Z,101983.27
2019-02-20T01:12:36.749Z,101984.58
2019-02-20T01:15:06.179Z,101984.58
2019-02-20T01:17:35.396Z,101978.02
2019-02-20T01:20:04.943Z,101978.02
2019-02-20T01:22:34.254Z,101975.84
2019-02-20T01:25:03.559Z,101970.60
2019-02-20T01:27:32.898Z,101971.02
2019-02-20T01:30:02.107Z,101971.02
2019-02-20T01:32:31.327Z,101978.05
2019-02-20T01:35:00.559Z,101978.08
2019-02-20T01:37:29.822Z,101978.95
2019-02-20T01:39:59.061Z,101977.19
2019-02-20T01:42:28.386Z,101985.09
2019-02-20T01:44:57.585Z,101960.97
2019-02-20T01:47:26.879Z,101973.67
2019-02-20T01:49:56.264Z,101965.84
2019-02-20T01:52:25.487Z,101965.84
2019-02-20T01:54:54.763Z,101963.62
2019-02-20T01:57:24.091Z,101963.62
2019-02-20T01:59:53.289Z,101953.57
2019-02-20T02:02:22.561Z,101953.57
2019-02-20T02:04:51.769Z,101950.92
2019-02-20T02:07:20.959Z,101950.92
2019-02-20T02:09:50.298Z,101960.13
2019-02-20T02:12:19.559Z,101969.77
2019-02-20T02:14:48.830Z,101954.88
2019-02-20T02:17:18.181Z,101962.33
2019-02-20T02:19:47.389Z,101962.79
2019-02-20T02:22:16.664Z,101962.79
2019-02-20T02:24:45.927Z,101965.00
2019-02-20T02:27:15.160Z,101975.52
2019-02-20T02:29:44.399Z,101972.05
2019-02-20T02:32:13.627Z,101969.86
2019-02-20T02:34:42.905Z,101976.83
2019-02-20T02:37:12.268Z,101976.83
2019-02-20T02:39:41.596Z,101979.90
2019-02-20T02:42:10.767Z,101975.08
2019-02-20T02:44:40.073Z,101974.70
2019-02-20T02:47:09.316Z,101974.70
2019-02-20T02:49:38.559Z,101976.86
2019-02-20T02:52:07.894Z,101982.11
2019-02-20T02:54:37.182Z,101976.40
2019-02-20T02:57:06.383Z,101964.16
2019-02-20T02:59:35.590Z,101968.11
2019-02-20T03:02:04.791Z,101970.31
2019-02-20T03:04:34.025Z,101959.34
2019-02-20T03:07:03.284Z,101959.34
2019-02-20T03:09:32.463Z,101962.39
2019-02-20T03:12:01.723Z,101969.83
2019-02-20T03:14:30.982Z,101969.39
2019-02-20T03:17:00.233Z,101965.88
2019-02-20T03:19:29.427Z,101971.61
2019-02-20T03:21:58.815Z,101969.00
2019-02-20T03:24:28.086Z,101969.00
2019-02-20T03:26:57.388Z,101968.98
2019-02-20T03:29:26.611Z,101967.29
2019-02-20T03:31:55.866Z,101967.29
2019-02-20T03:34:25.206Z,101975.16
2019-02-20T03:36:54.464Z,101966.86
2019-02-20T03:39:23.696Z,101966.86
2019-02-20T03:41:52.931Z,101977.80
2019-02-20T03:44:22.194Z,101977.80
2019-02-20T03:46:51.499Z,101984.39
2019-02-20T03:49:20.692Z,101984.39
2019-02-20T03:51:49.969Z,101977.36
2019-02-20T03:54:19.325Z,101983.95
2019-02-20T03:56:48.659Z,101985.72
2019-02-20T03:59:18.001Z,101978.28
2019-02-20T04:01:47.263Z,101978.30
2019-02-20T04:04:16.475Z,101971.28
2019-02-20T04:06:45.669Z,101972.16
2019-02-20T04:09:14.967Z,101977.86
2019-02-20T04:11:44.219Z,101977.86
2019-02-20T04:14:13.471Z,101984.01
2019-02-20T04:16:42.776Z,101984.01
2019-02-20T04:19:12.062Z,101984.02
2019-02-20T04:21:41.392Z,101982.71
2019-02-20T04:24:10.592Z,101976.97
2019-02-20T04:26:39.828Z,101976.11
2019-02-20T04:29:09.037Z,101976.11
2019-02-20T04:31:38.255Z,101971.75
2019-02-20T04:34:07.575Z,101979.63
2019-02-20T04:36:36.885Z,101976.58
2019-02-20T04:39:06.910Z,101976.98
2019-02-20T04:41:36.166Z,101975.25
2019-02-20T04:44:05.436Z,101981.36
2019-02-20T04:46:34.690Z,101988.41
2019-02-20T04:49:03.907Z,101990.58
2019-02-20T04:51:33.291Z,101983.58
2019-02-20T04:54:02.511Z,101983.58
2019-02-20T04:56:31.785Z,101984.48
2019-02-20T04:59:01.325Z,101984.48
2019-02-20T05:01:30.559Z,101987.94
2019-02-20T05:03:59.932Z,101987.94
2019-02-20T05:06:29.195Z,101992.33
2019-02-20T05:08:58.418Z,101979.19
2019-02-20T05:11:27.697Z,101978.30
2019-02-20T05:13:57.036Z,101978.30
2019-02-20T05:16:26.312Z,101984.45
2019-02-20T05:18:55.615Z,101983.14
2019-02-20T05:21:24.896Z,101976.55
2019-02-20T05:23:54.200Z,101976.55
2019-02-20T05:26:23.499Z,101990.13
2019-02-20T05:28:52.752Z,101994.06
2019-02-20T05:31:21.983Z,101994.06
2019-02-20T05:33:51.292Z,101989.23
2019-02-20T05:36:20.502Z,101990.55
2019-02-20T05:38:49.863Z,101983.52
2019-02-20T05:41:19.013Z,101984.84
2019-02-20T05:43:48.208Z,101989.67
2019-02-20T05:46:17.409Z,101986.58
2019-02-20T05:48:46.678Z,101986.58
2019-02-20T05:51:15.909Z,101988.79
2019-02-20T05:53:45.144Z,101997.56
2019-02-20T05:56:14.475Z,101991.84
2019-02-20T05:58:43.686Z,101997.09
2019-02-20T06:01:13.082Z,101987.91
2019-02-20T06:03:42.407Z,101993.17
2019-02-20T06:06:11.731Z,101999.30
2019-02-20T06:08:40.989Z,101992.72
2019-02-20T06:11:14.733Z,101995.34
2019-02-20T06:13:39.603Z,101987.05
2019-02-20T06:16:09.166Z,101987.05
2019-02-20T06:18:38.536Z,101998.88
2019-02-20T06:21:07.950Z,101992.73
2019-02-20T06:23:37.194Z,102005.86
2019-02-20T06:26:06.441Z,102009.32
2019-02-20T06:28:35.734Z,102008.45
2019-02-20T06:31:05.020Z,102016.77
2019-02-20T06:33:34.257Z,102014.17
2019-02-20T06:36:03.733Z,102014.17
2019-02-20T06:38:32.976Z,102014.16
2019-02-20T06:41:02.236Z,102015.04
2019-02-20T06:43:31.498Z,102005.41
2019-02-20T06:46:00.691Z,102015.05
2019-02-20T06:48:29.924Z,102015.05
2019-02-20T06:50:59.169Z,102026.45
2019-02-20T06:53:28.466Z,102031.75
2019-02-20T06:55:57.707Z,102036.11
2019-02-20T06:58:26.949Z,102036.11
2019-02-20T07:00:56.279Z,102040.48
2019-02-20T07:03:25.511Z,102038.72
2019-02-20T07:07:04.004Z,102040.48
2019-02-20T07:10:22.117Z,102044.44
2019-02-20T07:13:07.681Z,102051.45
2019-02-20T07:16:01.578Z,102054.97
2019-02-20T07:19:04.890Z,102056.68
2019-02-20T07:22:16.479Z,102058.86
2019-02-20T07:25:03.084Z,102038.25
2019-02-20T07:27:41.561Z,102038.25
2019-02-20T07:30:10.985Z,102055.80
2019-02-20T07:32:40.249Z,102067.16
2019-02-20T07:35:10.724Z,102070.72
2019-02-20T07:37:47.249Z,102064.56
2019-02-20T07:40:19.677Z,102074.20
2019-02-20T07:42:48.917Z,102079.45
2019-02-20T07:45:18.158Z,102080.30
2019-02-20T07:47:47.523Z,102081.62
2019-02-20T07:50:18.979Z,102082.48
2019-02-20T07:52:49.333Z,102090.40
2019-02-20T07:55:18.605Z,102093.03
2019-02-20T07:57:47.850Z,102104.41
2019-02-20T08:00:17.060Z,102104.41
2019-02-20T08:02:46.343Z,102104.39
2019-02-20T08:05:15.626Z,102104.39
2019-02-20T08:07:44.855Z,102108.34
2019-02-20T08:10:14.080Z,102121.52
2019-02-20T08:12:52.563Z,102119.34
2019-02-20T08:15:21.797Z,102119.34
2019-02-20T08:17:51.289Z,102119.81
2019-02-20T08:20:20.516Z,102128.14
2019-02-20T08:22:49.737Z,102128.14
2019-02-20T08:25:22.972Z,102131.58
2019-02-20T08:27:48.288Z,102138.09
2019-02-20T08:30:17.516Z,102138.09
2019-02-20T08:32:46.796Z,102143.72
2019-02-20T08:35:16.028Z,102148.09
2019-02-20T08:37:45.432Z,102141.48
2019-02-20T08:40:15.561Z,102145.44
2019-02-20T08:42:45.011Z,102157.71
2019-02-20T08:45:14.289Z,102157.22
2019-02-20T08:47:43.547Z,102159.02
2019-02-20T08:50:12.909Z,102161.69
2019-02-20T08:52:42.157Z,102159.08
2019-02-20T08:55:11.459Z,102164.33
2019-02-20T08:57:40.733Z,102176.64
2019-02-20T09:00:12.236Z,102173.98
2019-02-20T09:02:44.408Z,102181.36
2019-02-20T09:05:13.665Z,102183.42
2019-02-20T09:07:43.015Z,102186.03
2019-02-20T09:10:12.288Z,102185.10
2019-02-20T09:12:41.500Z,102191.18
2019-02-20T09:15:10.829Z,102195.14
2019-02-20T09:17:40.061Z,102059.40
2019-02-20T09:20:11.989Z,102202.58
2019-02-20T09:22:41.255Z,102205.56
2019-02-20T09:25:19.286Z,102206.52
2019-02-20T09:27:39.913Z,102213.06
2019-02-20T09:30:11.232Z,102208.25
2019-02-20T09:32:40.455Z,102209.58
2019-02-20T09:35:09.843Z,102204.33
2019-02-20T09:37:39.218Z,102205.61
2019-02-20T09:40:11.334Z,102200.37
2019-02-20T09:42:41.597Z,102206.41
2019-02-20T09:45:11.436Z,102204.95
2019-02-20T09:47:40.658Z,102208.75
2019-02-20T09:50:09.884Z,102214.35
2019-02-20T09:52:39.307Z,102215.64
2019-02-20T09:55:09.703Z,102209.86
2019-02-20T09:57:39.229Z,102218.92
2019-02-20T10:00:11.317Z,102215.03
2019-02-20T10:02:40.589Z,102221.41
2019-02-20T10:05:10.271Z,102223.20
2019-02-20T10:07:39.509Z,102226.67
2019-02-20T10:10:08.845Z,102229.50
2019-02-20T10:12:38.136Z,102252.86
2019-02-20T10:15:08.387Z,102235.11
2019-02-20T10:17:37.707Z,102242.05
2019-02-20T10:20:07.885Z,102237.16
2019-02-20T10:22:37.125Z,102243.14
2019-02-20T10:25:06.593Z,102246.20
2019-02-20T10:27:35.828Z,102255.72
2019-02-20T10:30:06.332Z,102240.25
2019-02-20T10:32:35.553Z,102243.09
2019-02-20T10:35:05.767Z,102242.48
2019-02-20T10:37:35.093Z,102242.63
2019-02-20T10:40:04.351Z,102248.22
2019-02-20T10:42:33.617Z,102246.11
2019-02-20T10:45:02.897Z,102246.41
2019-02-20T10:47:32.220Z,102250.87
2019-02-20T10:50:01.454Z,102250.42
2019-02-20T10:52:30.709Z,102251.20
2019-02-20T10:54:59.935Z,102255.48
2019-02-20T10:57:29.273Z,102256.44
2019-02-20T10:59:58.497Z,102259.81
2019-02-20T11:02:27.768Z,102249.78
2019-02-20T11:04:57.132Z,102249.33
2019-02-20T11:07:29.092Z,102251.36
2019-02-20T11:09:58.299Z,102255.31
2019-02-20T11:12:27.635Z,102259.08
2019-02-20T11:14:56.905Z,102260.06
2019-02-20T11:17:26.124Z,102257.00
2019-02-20T11:19:55.427Z,102255.14
2019-02-20T11:22:24.681Z,102251.06
2019-02-20T11:24:53.952Z,102249.67
2019-02-20T11:27:23.171Z,102256.48
2019-02-20T11:29:52.398Z,102261.25
2019-02-20T11:32:21.639Z,102258.52
2019-02-20T11:34:50.860Z,102256.19
2019-02-20T11:37:20.165Z,102259.27
2019-02-20T11:39:49.375Z,102259.09
2019-02-20T11:42:18.634Z,102259.03
2019-02-20T11:44:47.923Z,102262.58
2019-02-20T11:47:17.229Z,102262.43
2019-02-20T11:49:46.511Z,102265.30
2019-02-20T11:52:15.785Z,102243.42
2019-02-20T11:54:44.997Z,102250.45
2019-02-20T11:57:14.393Z,102249.91
2019-02-20T11:59:43.731Z,102269.93
2019-02-20T12:02:12.993Z,102270.95
2019-02-20T12:04:42.259Z,102267.70
2019-02-20T12:07:11.464Z,102269.05
2019-02-20T12:09:40.682Z,102255.85
2019-02-20T12:12:09.961Z,102261.39
2019-02-20T12:14:39.189Z,102261.98
2019-02-20T12:17:08.432Z,102258.16
2019-02-20T12:19:39.333Z,102257.34
2019-02-20T12:22:06.967Z,102253.98
2019-02-20T12:24:36.233Z,102249.59
2019-02-20T12:27:05.623Z,102245.61
2019-02-20T12:29:34.859Z,102251.27
2019-02-20T12:32:04.114Z,102238.98
2019-02-20T12:34:33.358Z,102246.38
2019-02-20T12:37:02.612Z,102242.81
2019-02-20T12:39:31.922Z,102251.69
2019-02-20T12:42:01.245Z,102249.38
2019-02-20T12:44:30.537Z,102239.85
2019-02-20T12:46:59.859Z,102244.31
2019-02-20T12:49:29.069Z,102246.34
2019-02-20T12:52:00.084Z,102252.99
2019-02-20T12:54:27.531Z,102255.52
2019-02-20T12:56:56.827Z,102253.92
2019-02-20T12:59:26.117Z,102247.10
2019-02-20T13:01:55.365Z,102255.25
2019-02-20T13:04:24.724Z,102250.64
2019-02-20T13:06:59.551Z,102257.12
2019-02-20T13:09:23.147Z,102253.43
2019-02-20T13:11:52.641Z,102246.88
2019-02-20T13:14:21.893Z,102246.32
2019-02-20T13:16:51.107Z,102254.52
2019-02-20T13:19:20.422Z,102243.76
2019-02-20T13:21:49.679Z,102245.84
2019-02-20T13:24:18.933Z,102250.16
2019-02-20T13:26:52.850Z,102235.45
2019-02-20T13:29:17.438Z,102259.20
2019-02-20T13:31:46.735Z,102249.52
2019-02-20T13:34:15.983Z,102236.00
2019-02-20T13:36:45.254Z,102243.90
2019-02-20T13:39:14.537Z,102240.56
2019-02-20T13:41:44.554Z,102236.40
2019-02-20T13:44:13.860Z,102245.41
2019-02-20T13:46:43.143Z,102238.14
2019-02-20T13:49:12.466Z,102241.11
2019-02-20T13:51:41.713Z,102243.49
2019-02-20T13:54:10.932Z,102235.95
2019-02-20T13:56:40.456Z,102240.90
2019-02-20T13:59:09.691Z,102243.37
2019-02-20T14:01:39.249Z,102229.30
2019-02-20T14:04:08.565Z,102228.89
2019-02-20T14:06:37.876Z,102226.91
2019-02-20T14:09:07.187Z,102234.19
2019-02-20T14:11:36.444Z,102239.20
2019-02-20T14:14:05.785Z,102233.28
2019-02-20T14:16:35.003Z,102240.55
2019-02-20T14:19:04.353Z,102240.17
2019-02-20T14:21:33.670Z,102248.67
2019-02-20T14:24:02.959Z,102238.99
2019-02-20T14:26:32.191Z,102236.16
2019-02-20T14:29:01.414Z,102245.09
2019-02-20T14:31:30.658Z,102246.78
2019-02-20T14:33:59.889Z,102241.67
2019-02-20T14:36:29.109Z,102237.30
2019-02-20T14:38:58.480Z,102241.62
2019-02-20T14:41:27.995Z,102243.39
2019-02-20T14:43:57.653Z,102239.80
2019-02-20T14:46:26.892Z,102243.83
2019-02-20T14:48:56.116Z,102243.33
2019-02-20T14:51:27.583Z,102250.74
2019-02-20T14:53:55.660Z,102243.00
2019-02-20T14:56:25.029Z,102249.91
2019-02-20T14:58:54.351Z,102247.19
2019-02-20T15:01:23.611Z,102242.62
2019-02-20T15:03:52.865Z,102250.66
2019-02-20T15:06:22.231Z,102257.41
2019-02-20T15:08:51.467Z,102250.05
2019-02-20T15:11:20.803Z,102255.00
2019-02-20T15:13:50.131Z,102247.78
2019-02-20T15:16:19.418Z,102254.39
2019-02-20T15:18:48.645Z,102251.73
2019-02-20T15:21:17.933Z,102250.43
2019-02-20T15:23:47.658Z,102250.48
2019-02-20T15:26:16.875Z,102247.59
2019-02-20T15:28:46.177Z,102248.00
2019-02-20T15:31:21.310Z,102246.67
2019-02-20T15:33:49.048Z,102250.65
2019-02-20T15:36:18.352Z,102248.94
2019-02-20T15:38:47.645Z,102242.30
2019-02-20T15:41:16.881Z,102246.28
2019-02-20T15:43:46.182Z,102247.70
2019-02-20T15:46:15.453Z,102243.33
2019-02-20T15:48:44.670Z,102252.13
2019-02-20T15:51:13.936Z,102226.80
2019-02-20T15:53:43.242Z,102264.64
2019-02-20T15:56:12.472Z,102257.59
2019-02-20T15:58:41.781Z,102253.17
2019-02-20T16:01:11.594Z,102263.81
2019-02-20T16:03:40.211Z,102264.69
2019-02-20T16:06:09.563Z,102270.48
2019-02-20T16:08:38.781Z,102264.42
2019-02-20T16:11:08.138Z,102266.16
2019-02-20T16:13:37.437Z,102275.88
2019-02-20T16:16:06.797Z,102268.45
2019-02-20T16:18:36.058Z,102272.02
2019-02-20T16:21:08.371Z,102275.08
2019-02-20T16:23:37.703Z,102271.65
2019-02-20T16:26:07.038Z,102272.62
2019-02-20T16:28:36.271Z,102280.10
2019-02-20T16:31:05.521Z,102282.74
2019-02-20T16:33:34.719Z,102278.83
2019-02-20T16:36:04.008Z,102276.17
2019-02-20T16:38:33.351Z,102274.53
2019-02-20T16:41:04.619Z,102282.06
2019-02-20T16:43:32.044Z,102285.58
2019-02-20T16:46:01.337Z,102282.53
2019-02-20T16:48:30.771Z,102282.16
2019-02-20T16:51:00.153Z,102290.18
2019-02-20T16:53:29.460Z,102291.55
2019-02-20T16:55:58.866Z,102289.31
2019-02-20T16:58:28.220Z,102287.16
2019-02-20T17:00:57.474Z,102281.91
2019-02-20T17:03:26.689Z,102285.17
2019-02-20T17:05:55.922Z,102295.76
2019-02-20T17:08:25.278Z,102295.76
2019-02-20T17:10:54.692Z,102302.78
2019-02-20T17:13:23.926Z,102308.08
2019-02-20T17:15:53.181Z,102305.02
2019-02-20T17:18:22.681Z,102313.89
2019-02-20T17:20:51.991Z,102312.16
2019-02-20T17:23:21.266Z,102316.95
2019-02-20T17:25:50.635Z,102315.67
2019-02-20T17:28:19.832Z,102320.50
2019-02-20T17:30:55.136Z,102326.66
2019-02-20T17:33:24.392Z,102325.80
2019-02-20T17:35:53.700Z,102330.70
2019-02-20T17:38:22.910Z,102333.39
2019-02-20T17:40:52.156Z,102333.88
2019-02-20T17:43:21.396Z,102334.78
2019-02-20T17:45:50.797Z,102337.00
2019-02-20T17:48:20.093Z,102344.93
2019-02-20T17:50:49.481Z,102346.73
2019-02-20T17:53:18.814Z,102341.48
2019-02-20T17:55:48.188Z,102341.94
2019-02-20T17:58:17.635Z,102343.28
2019-02-20T18:00:46.887Z,102341.55
2019-02-20T18:03:16.239Z,102345.09
2019-02-20T18:05:49.767Z,102346.86
2019-02-20T18:08:19.171Z,102348.63
2019-02-20T18:10:48.503Z,102347.79
2019-02-20T18:13:19.618Z,102346.50
2019-02-20T18:15:46.992Z,102340.83
2019-02-20T18:18:16.279Z,102346.16
2019-02-20T18:20:45.576Z,102346.16
2019-02-20T18:23:14.923Z,102352.80
2019-02-20T18:25:44.242Z,102354.11
2019-02-20T18:28:13.541Z,102352.37
2019-02-20T18:30:43.022Z,102352.37
2019-02-20T18:33:12.277Z,102346.20
2019-02-20T18:35:41.738Z,102348.87
2019-02-20T18:38:11.038Z,102357.67
2019-02-20T18:40:40.336Z,102355.87
2019-02-20T18:43:09.591Z,102354.13
2019-02-20T18:45:38.944Z,102348.37
2019-02-20T18:48:08.244Z,102353.25
2019-02-20T18:50:37.511Z,102357.62
2019-02-20T18:53:06.748Z,102356.75
2019-02-20T18:55:36.002Z,102353.23
2019-02-20T18:58:05.260Z,102344.44
2019-02-20T19:00:34.604Z,102344.86
2019-02-20T19:03:03.826Z,102344.86
2019-02-20T19:05:33.856Z,102359.39
2019-02-20T19:08:21.746Z,102359.39
2019-02-20T19:10:57.038Z,102358.53
2019-02-20T19:14:01.748Z,102360.72
2019-02-20T19:17:00.445Z,102363.34
2019-02-20T19:19:49.325Z,102360.70
2019-02-20T19:22:41.587Z,102364.21
2019-02-20T19:26:00.785Z,102372.56
2019-02-20T19:29:06.143Z,102365.08
2019-02-20T19:32:10.861Z,102373.02
2019-02-20T19:35:16.088Z,102379.16
2019-02-20T19:38:28.560Z,102377.39
2019-02-20T19:41:51.526Z,102373.88
2019-02-20T19:44:55.407Z,102376.08
2019-02-20T19:47:54.739Z,102369.05
2019-02-20T19:50:48.626Z,102369.05
2019-02-20T19:53:36.124Z,102371.23
2019-02-20T19:57:05.666Z,102365.08
2019-02-20T20:00:19.550Z,102370.34
2019-02-20T20:03:07.310Z,102370.34
2019-02-20T20:06:09.754Z,102374.75
2019-02-20T20:09:24.272Z,102385.78
2019-02-20T20:12:41.490Z,102376.98
2019-02-20T20:15:44.111Z,102372.56
2019-02-20T20:18:42.784Z,102367.75
2019-02-20T20:21:33.648Z,102372.13
2019-02-20T20:24:42.583Z,102371.30
2019-02-20T20:28:11.742Z,102363.80
2019-02-20T20:31:21.119Z,102363.80
2019-02-20T20:34:20.103Z,102365.16
2019-02-20T20:37:26.489Z,102369.55
2019-02-20T20:40:41.812Z,102361.66
2019-02-20T20:43:47.134Z,102355.62
2019-02-20T20:47:03.601Z,102355.62
2019-02-20T20:49:55.728Z,102362.22
2019-02-20T20:52:51.766Z,102364.46
2019-02-20T20:55:57.647Z,102349.09
2019-02-20T20:59:17.680Z,102350.86
2019-02-20T21:02:01.671Z,102350.86
2019-02-20T21:05:05.332Z,102349.56
2019-02-20T21:08:08.580Z,102349.13
2019-02-20T21:11:18.670Z,102349.13
2019-02-20T21:14:28.962Z,102348.20
2019-02-20T21:17:09.061Z,102352.48
2019-02-20T21:20:06.596Z,102352.48
2019-02-20T21:22:59.019Z,102347.22
2019-02-20T21:25:56.636Z,102344.66
2019-02-20T21:29:03.354Z,102345.56
2019-02-20T21:32:03.361Z,102345.56
2019-02-20T21:34:54.700Z,102343.81
2019-02-20T21:37:37.641Z,102348.69
2019-02-20T21:40:17.463Z,102354.39
2019-02-20T21:43:11.770Z,102352.25
2019-02-20T21:46:13.397Z,102355.34
2019-02-20T21:49:03.428Z,102358.86
2019-02-20T21:52:04.765Z,102358.86
2019-02-20T21:54:59.991Z,102359.75
2019-02-20T21:58:01.653Z,102360.19
2019-02-20T22:00:46.291Z,102368.11
2019-02-20T22:03:45.937Z,102316.67
2019-02-20T22:07:03.345Z,102348.27
2019-02-20T22:10:01.831Z,102355.66
2019-02-20T22:13:07.144Z,102362.29
2019-02-20T22:16:06.850Z,102363.65
2019-02-20T22:19:04.227Z,102367.23
2019-02-20T22:22:24.009Z,102371.20
2019-02-20T22:25:43.790Z,102366.41
2019-02-20T22:28:57.125Z,102362.49
2019-02-20T22:31:53.295Z,102362.52
2019-02-20T22:34:58.061Z,102378.36
2019-02-20T22:37:46.823Z,102376.63
2019-02-20T22:40:27.104Z,102382.80
2019-02-20T22:43:38.325Z,102377.09
2019-02-20T22:46:30.722Z,102395.57
2019-02-20T22:49:40.332Z,102395.57
2019-02-20T22:52:20.226Z,102397.78
2019-02-20T22:55:26.231Z,102402.62
2019-02-20T22:59:04.802Z,102402.62
2019-02-20T23:02:00.350Z,102390.75
2019-02-20T23:04:58.839Z,102388.11
2019-02-20T23:08:08.278Z,102395.14
2019-02-20T23:11:21.696Z,102393.83
2019-02-20T23:14:32.965Z,102396.89
2019-02-20T23:17:02.322Z,102393.37
2019-02-20T23:19:31.710Z,102392.04
2019-02-20T23:22:01.047Z,102396.89
2019-02-20T23:24:30.427Z,102396.89
2019-02-20T23:26:59.764Z,102397.34
2019-02-20T23:29:29.199Z,102394.26
2019-02-20T23:31:58.669Z,102389.00
2019-02-20T23:34:27.939Z,102396.89
2019-02-20T23:36:57.295Z,102396.89
2019-02-20T23:39:26.677Z,102403.03
2019-02-20T23:41:58.731Z,102406.13
2019-02-20T23:44:28.179Z,102397.33
2019-02-20T23:46:57.669Z,102400.41
2019-02-20T23:49:27.024Z,102413.58
2019-02-20T23:51:56.779Z,102413.58
2019-02-20T23:54:26.179Z,102403.02
2019-02-20T23:56:55.526Z,102407.88
2019-02-20T23:59:25.542Z,102406.11
